Time;durP1;ratioP1;P1;durP2;ratioP2;P2;SDS_P1;SDS_P2;PMS_P1;PMS_P2;Temp;Humidity;BMP_temperature;BMP_pressure;BME280_temperature;BME280_humidity;BME280_pressure;Samples;Min_cycle;Max_cycle;Signal;HPM_P1;HPM_P2
2021/12/21 00:00:21;;;;;;;4.95;3.20;;;-0.40;93.20;;;;;;5045331;28;20028;-69
2021/12/21 00:02:49;;;;;;;4.53;3.22;;;-0.40;92.80;;;;;;5038471;28;20080;-70
2021/12/21 00:05:19;;;;;;;3.55;2.88;;;-0.40;92.70;;;;;;5040003;28;20017;-70
2021/12/21 00:07:48;;;;;;;3.38;2.70;;;-0.40;92.60;;;;;;5044905;28;20391;-71
2021/12/21 00:10:15;;;;;;;3.78;3.10;;;-0.40;92.40;;;;;;5049963;28;20036;-67
2021/12/21 00:13:00;;;;;;;4.03;3.10;;;-0.40;92.10;;;;;;5034456;28;20529;-70
2021/12/21 00:18:13;;;;;;;4.38;3.10;;;-0.40;92.10;;;;;;5037436;28;20111;-70
2021/12/21 00:23:45;;;;;;;5.35;3.20;;;-0.50;92.00;;;;;;5041291;28;20152;-69
2021/12/21 00:26:13;;;;;;;3.42;3.10;;;-0.50;91.80;;;;;;5045578;28;20030;-71
2021/12/21 00:29:03;;;;;;;4.50;3.45;;;-0.60;92.00;;;;;;5043284;28;20471;-73
2021/12/21 00:31:29;;;;;;;4.25;3.25;;;-0.60;91.90;;;;;;5052619;28;20045;-71
2021/12/21 00:33:55;;;;;;;4.50;3.30;;;-0.60;91.80;;;;;;5051820;28;20182;-69
2021/12/21 00:36:23;;;;;;;4.20;3.20;;;-0.60;92.10;;;;;;5037156;28;20512;-72
2021/12/21 00:38:51;;;;;;;5.68;3.30;;;-0.60;92.20;;;;;;5047432;28;20040;-69
2021/12/21 00:41:17;;;;;;;4.55;2.92;;;-0.60;92.00;;;;;;5033606;28;20382;-75
2021/12/21 00:43:43;;;;;;;3.95;3.20;;;-0.60;91.60;;;;;;5049232;28;20455;-73
2021/12/21 00:46:11;;;;;;;3.83;3.03;;;-0.60;91.40;;;;;;5053823;28;20025;-70
2021/12/21 00:48:37;;;;;;;4.20;3.25;;;-0.60;91.00;;;;;;5053219;28;20033;-70
2021/12/21 00:51:07;;;;;;;3.25;2.63;;;-0.60;91.00;;;;;;5050637;28;20033;-70
2021/12/21 00:53:37;;;;;;;3.53;2.95;;;-0.60;90.60;;;;;;5043993;28;20082;-68
2021/12/21 00:56:03;;;;;;;4.28;3.40;;;-0.60;90.30;;;;;;5052206;28;20483;-68
2021/12/21 00:58:29;;;;;;;4.15;2.85;;;-0.70;90.20;;;;;;5042761;28;20430;-73
2021/12/21 01:00:56;;;;;;;4.18;2.90;;;-0.70;90.20;;;;;;5039355;28;20029;-70
2021/12/21 01:03:22;;;;;;;4.10;3.10;;;-0.70;90.00;;;;;;5041479;28;20038;-72
2021/12/21 01:05:58;;;;;;;3.70;2.88;;;-0.70;89.70;;;;;;5036263;28;20052;-71
2021/12/21 01:08:30;;;;;;;4.45;2.65;;;-0.80;89.00;;;;;;5043671;28;20040;-70
2021/12/21 01:11:20;;;;;;;3.13;2.80;;;-0.80;88.80;;;;;;5044951;28;20073;-71
2021/12/21 01:16:32;;;;;;;3.22;2.90;;;-0.90;88.20;;;;;;5042179;28;20060;-69
2021/12/21 01:21:29;;;;;;;4.18;2.92;;;-0.90;87.50;;;;;;5043005;28;20037;-70
2021/12/21 01:36:57;;;;;;;4.80;3.70;;;-1.00;86.60;;;;;;5048223;28;20029;-74
2021/12/21 01:41:58;;;;;;;5.70;4.25;;;-1.10;87.00;;;;;;5041404;28;20049;-70
2021/12/21 01:49:32;;;;;;;5.85;4.75;;;-1.10;87.50;;;;;;5053277;28;20025;-70
2021/12/21 01:49:56;;;;;;;7.03;5.00;;;-1.10;88.30;;;;;;5052910;28;20395;-71
2021/12/21 01:52:25;;;;;;;6.15;4.72;;;-1.10;88.80;;;;;;5039364;28;20021;-69
2021/12/21 01:54:51;;;;;;;6.95;5.20;;;-1.10;89.20;;;;;;5048436;28;20514;-68
2021/12/21 01:57:17;;;;;;;8.68;5.80;;;-1.10;89.30;;;;;;5044726;28;20034;-69
2021/12/21 01:59:48;;;;;;;6.65;4.95;;;-1.10;89.50;;;;;;5041297;28;20037;-73
2021/12/21 02:02:16;;;;;;;6.07;4.85;;;-1.10;89.80;;;;;;5043845;28;20061;-70
2021/12/21 02:04:43;;;;;;;7.03;5.22;;;-1.00;90.00;;;;;;5043757;28;20395;-74
2021/12/21 02:07:09;;;;;;;7.00;5.20;;;-1.00;89.70;;;;;;5048958;28;20029;-69
2021/12/21 02:09:38;;;;;;;6.80;5.50;;;-1.00;89.60;;;;;;5047955;28;20391;-71
2021/12/21 02:12:15;;;;;;;14.75;5.97;;;-1.00;89.70;;;;;;5043803;28;20061;-70
2021/12/21 02:14:43;;;;;;;7.00;5.57;;;-1.10;89.80;;;;;;5040785;28;20033;-68
2021/12/21 02:19:41;;;;;;;7.15;5.38;;;-1.00;90.00;;;;;;5048970;28;20118;-70
2021/12/21 02:22:12;;;;;;;6.57;5.05;;;-1.00;90.00;;;;;;5046194;28;20037;-70
2021/12/21 02:24:50;;;;;;;7.07;5.60;;;-1.10;89.80;;;;;;5047130;28;20084;-69
2021/12/21 02:27:26;;;;;;;8.05;6.20;;;-1.10;90.10;;;;;;5042333;28;20025;-68
2021/12/21 02:29:53;;;;;;;8.55;5.78;;;-1.10;89.80;;;;;;5037118;28;20030;-71
2021/12/21 02:32:19;;;;;;;7.75;5.75;;;-1.10;90.00;;;;;;5039317;28;20030;-70
2021/12/21 02:34:45;;;;;;;7.65;5.82;;;-1.10;89.90;;;;;;5041439;28;20021;-70
2021/12/21 02:37:12;;;;;;;6.50;5.30;;;-1.00;90.10;;;;;;5046899;28;20082;-69
2021/12/21 02:39:38;;;;;;;6.90;5.18;;;-1.00;89.90;;;;;;5047225;28;20033;-70
2021/12/21 02:42:05;;;;;;;6.38;4.88;;;-1.10;89.60;;;;;;5046297;28;20117;-71
2021/12/21 02:44:31;;;;;;;5.47;4.68;;;-1.10;89.50;;;;;;5041854;28;20113;-71
2021/12/21 02:46:57;;;;;;;5.38;4.60;;;-1.10;89.40;;;;;;5035992;28;21710;-71
2021/12/21 02:49:23;;;;;;;6.55;4.63;;;-1.20;89.30;;;;;;5051508;28;20048;-68
2021/12/21 02:51:49;;;;;;;5.80;4.90;;;-1.20;89.50;;;;;;5044918;28;20052;-71
2021/12/21 02:54:16;;;;;;;5.50;4.88;;;-1.20;89.10;;;;;;5047784;28;20029;-71
2021/12/21 02:56:42;;;;;;;6.47;4.78;;;-1.20;89.00;;;;;;5045551;28;20033;-70
2021/12/21 02:59:09;;;;;;;5.90;4.90;;;-1.20;89.10;;;;;;5049838;28;20483;-71
2021/12/21 03:01:36;;;;;;;6.22;5.30;;;-1.30;89.10;;;;;;5045074;28;20079;-71
2021/12/21 03:04:02;;;;;;;6.78;5.43;;;-1.30;89.10;;;;;;5045692;28;20029;-72
2021/12/21 03:08:57;;;;;;;5.53;4.70;;;-1.30;89.50;;;;;;5043104;28;20025;-68
2021/12/21 03:14:22;;;;;;;5.03;4.40;;;-1.30;89.30;;;;;;5035149;28;20491;-71
2021/12/21 03:16:48;;;;;;;5.53;4.60;;;-1.30;89.10;;;;;;5052989;28;20475;-73
2021/12/21 03:19:14;;;;;;;6.20;4.85;;;-1.40;88.90;;;;;;5054539;28;20107;-70
2021/12/21 03:21:40;;;;;;;6.75;5.13;;;-1.30;89.10;;;;;;5053388;28;20110;-71
2021/12/21 03:24:07;;;;;;;5.57;4.05;;;-1.40;89.30;;;;;;5054689;28;20025;-70
2021/12/21 03:26:33;;;;;;;5.90;4.40;;;-1.30;89.00;;;;;;5054549;28;20036;-70
2021/12/21 03:28:59;;;;;;;4.47;3.78;;;-1.40;88.50;;;;;;5048835;28;20120;-72
2021/12/21 03:31:25;;;;;;;5.10;4.32;;;-1.40;88.50;;;;;;5047437;28;20449;-72
2021/12/21 03:33:51;;;;;;;5.20;4.35;;;-1.40;88.40;;;;;;5045672;28;20031;-72
2021/12/21 03:36:17;;;;;;;5.30;3.78;;;-1.40;88.50;;;;;;5038503;28;20025;-71
2021/12/21 03:38:51;;;;;;;4.35;3.53;;;-1.40;88.50;;;;;;5049674;28;20068;-70
2021/12/21 03:41:18;;;;;;;4.82;3.28;;;-1.40;88.20;;;;;;5044740;28;20033;-70
2021/12/21 03:43:45;;;;;;;3.10;2.60;;;-1.50;87.50;;;;;;5052938;28;20025;-70
2021/12/21 03:46:13;;;;;;;3.47;2.70;;;-1.60;86.20;;;;;;5052098;28;20037;-72
2021/12/21 03:48:44;;;;;;;3.20;2.72;;;-1.70;85.30;;;;;;5045045;28;20024;-70
2021/12/21 03:51:10;;;;;;;3.00;2.47;;;-1.70;84.80;;;;;;5038532;28;20041;-71
2021/12/21 03:53:37;;;;;;;3.03;2.70;;;-1.80;83.80;;;;;;5040822;28;20061;-70
2021/12/21 03:58:29;;;;;;;3.92;3.10;;;-1.90;82.10;;;;;;5044746;28;20033;-71
2021/12/21 04:00:55;;;;;;;5.25;3.88;;;-2.00;81.50;;;;;;5039491;28;20040;-73
2021/12/21 04:03:20;;;;;;;4.03;3.08;;;-2.00;81.50;;;;;;5049603;28;20029;-75
2021/12/21 04:05:46;;;;;;;5.20;3.28;;;-2.00;81.50;;;;;;5037743;28;20029;-75
2021/12/21 04:08:12;;;;;;;4.15;3.03;;;-2.10;81.20;;;;;;5049274;28;20104;-72
2021/12/21 04:10:37;;;;;;;4.55;3.33;;;-2.20;81.60;;;;;;5042408;28;20398;-75
2021/12/21 04:13:03;;;;;;;3.58;3.08;;;-2.20;81.10;;;;;;5040499;28;20056;-71
2021/12/21 04:15:32;;;;;;;4.80;3.60;;;-2.30;81.20;;;;;;5038049;28;20026;-69
2021/12/21 04:17:57;;;;;;;4.57;3.58;;;-2.40;81.20;;;;;;5041489;28;20041;-74
2021/12/21 04:20:23;;;;;;;3.60;3.20;;;-2.50;81.50;;;;;;5039355;28;20021;-73
2021/12/21 04:22:49;;;;;;;4.00;3.10;;;-2.60;81.70;;;;;;5039324;28;20025;-70
2021/12/21 04:25:15;;;;;;;1.83;1.73;;;-2.60;82.10;;;;;;5038552;28;20025;-73
2021/12/21 04:27:40;;;;;;;4.05;3.30;;;-2.60;82.40;;;;;;5041778;28;20025;-71
2021/12/21 04:30:07;;;;;;;4.97;3.33;;;-2.70;82.60;;;;;;5039332;28;20036;-77
2021/12/21 04:32:33;;;;;;;3.83;3.25;;;-2.70;82.40;;;;;;5036209;28;20091;-71
2021/12/21 04:34:58;;;;;;;3.75;3.33;;;-2.70;82.20;;;;;;5035280;28;20690;-70
2021/12/21 04:37:25;;;;;;;3.67;3.08;;;-2.70;82.00;;;;;;5039978;28;20109;-71
2021/12/21 04:40:05;;;;;;;3.53;3.05;;;-2.70;82.10;;;;;;5038777;28;20041;-73
2021/12/21 04:42:31;;;;;;;3.58;3.05;;;-2.70;81.80;;;;;;5038642;28;20387;-74
2021/12/21 04:44:56;;;;;;;2.33;2.13;;;-2.70;81.60;;;;;;5039565;28;20033;-71
2021/12/21 04:47:22;;;;;;;3.45;2.97;;;-2.70;81.50;;;;;;5039824;28;20025;-72
2021/12/21 04:49:47;;;;;;;1.73;1.63;;;-2.80;81.40;;;;;;5040822;28;20535;-73
2021/12/21 04:52:13;;;;;;;3.38;2.92;;;-2.80;81.20;;;;;;5039691;28;20025;-71
2021/12/21 04:54:39;;;;;;;4.03;3.00;;;-2.90;81.10;;;;;;5043233;28;20068;-73
2021/12/21 04:57:06;;;;;;;3.72;3.03;;;-2.90;80.00;;;;;;5043264;28;20052;-71
2021/12/21 04:59:32;;;;;;;1.40;1.40;;;-2.90;79.50;;;;;;5042730;28;20045;-74
2021/12/21 05:01:57;;;;;;;4.18;3.30;;;-2.90;79.40;;;;;;5046797;28;20033;-73
2021/12/21 05:04:23;;;;;;;4.30;3.20;;;-3.00;79.80;;;;;;5044999;28;20438;-75
2021/12/21 05:06:49;;;;;;;5.10;3.65;;;-3.00;79.40;;;;;;5042980;28;20510;-74
2021/12/21 05:09:24;;;;;;;5.22;3.60;;;-3.00;78.90;;;;;;5041147;28;20474;-71
2021/12/21 05:11:50;;;;;;;5.00;3.70;;;-3.00;78.40;;;;;;5041094;28;20183;-71
2021/12/21 05:14:15;;;;;;;4.93;3.42;;;-3.00;78.20;;;;;;5046005;28;20538;-72
2021/12/21 05:16:41;;;;;;;4.63;3.55;;;-3.00;78.10;;;;;;5042649;28;20140;-74
2021/12/21 05:19:07;;;;;;;1.77;1.67;;;-3.00;78.20;;;;;;5043705;28;20071;-71
2021/12/21 05:21:34;;;;;;;1.58;1.48;;;-3.00;78.30;;;;;;5045125;28;20207;-74
2021/12/21 05:24:00;;;;;;;4.40;3.35;;;-3.00;78.90;;;;;;5048713;28;20029;-74
2021/12/21 05:26:26;;;;;;;4.00;3.13;;;-3.10;79.10;;;;;;5039215;28;20483;-74
2021/12/21 05:28:51;;;;;;;4.20;3.15;;;-3.10;78.80;;;;;;5038485;28;20044;-72
2021/12/21 05:31:17;;;;;;;1.30;1.30;;;-3.00;78.60;;;;;;5046355;28;20090;-74
2021/12/21 05:33:43;;;;;;;3.70;3.08;;;-3.00;78.40;;;;;;5050407;28;20029;-77
2021/12/21 05:36:09;;;;;;;2.00;1.83;;;-3.00;78.60;;;;;;5045951;28;20021;-73
2021/12/21 05:38:35;;;;;;;3.13;2.70;;;-3.00;78.50;;;;;;5043096;28;20372;-73
2021/12/21 05:41:04;;;;;;;4.07;2.75;;;-3.10;78.50;;;;;;5039455;28;20045;-72
2021/12/21 05:43:30;;;;;;;3.45;3.00;;;-3.10;78.10;;;;;;5045006;28;20390;-72
2021/12/21 05:45:56;;;;;;;4.47;3.35;;;-3.00;78.00;;;;;;5037901;28;20032;-73
2021/12/21 05:48:22;;;;;;;5.53;3.20;;;-3.00;78.00;;;;;;5040163;28;20386;-74
2021/12/21 05:50:47;;;;;;;4.28;3.40;;;-3.00;77.70;;;;;;5043759;28;20112;-74
2021/12/21 05:53:13;;;;;;;4.53;3.40;;;-3.00;77.70;;;;;;5040521;28;20052;-72
2021/12/21 05:55:39;;;;;;;3.90;3.30;;;-3.00;77.80;;;;;;5040287;28;20463;-72
2021/12/21 05:58:05;;;;;;;2.15;1.90;;;-3.00;77.80;;;;;;5038839;28;20035;-72
2021/12/21 06:00:34;;;;;;;5.18;3.30;;;-3.00;77.80;;;;;;5043143;28;20041;-73
2021/12/21 06:03:00;;;;;;;4.30;3.50;;;-3.10;78.30;;;;;;5038648;28;20033;-74
2021/12/21 06:05:26;;;;;;;1.83;1.73;;;-3.00;78.40;;;;;;5042084;28;20029;-74
2021/12/21 06:07:53;;;;;;;4.45;3.63;;;-3.00;79.10;;;;;;5037575;28;20043;-72
2021/12/21 06:10:26;;;;;;;4.07;3.65;;;-3.10;78.90;;;;;;5045285;28;20360;-73
2021/12/21 06:15:35;;;;;;;3.92;3.40;;;-3.00;78.90;;;;;;5039480;28;20060;-75
2021/12/21 06:26:10;;;;;;;4.87;3.90;;;-2.90;79.20;;;;;;5041724;28;20025;-74
2021/12/21 06:28:36;;;;;;;7.60;4.40;;;-2.90;79.50;;;;;;5040015;28;20114;-74
2021/12/21 06:31:02;;;;;;;6.53;4.55;;;-2.90;79.30;;;;;;5044653;28;20029;-73
2021/12/21 06:33:28;;;;;;;1.77;1.67;;;-2.90;79.30;;;;;;5046039;28;20077;-75
2021/12/21 06:35:54;;;;;;;6.75;5.30;;;-2.70;79.70;;;;;;5046299;28;20033;-68
2021/12/21 06:38:20;;;;;;;6.55;4.65;;;-2.70;80.10;;;;;;5045460;28;20041;-73
2021/12/21 06:40:46;;;;;;;5.07;3.90;;;-2.60;80.00;;;;;;5044263;28;20485;-72
2021/12/21 06:43:14;;;;;;;6.57;4.70;;;-2.50;79.60;;;;;;5045913;28;20102;-72
2021/12/21 06:45:54;;;;;;;6.22;4.20;;;-2.40;79.30;;;;;;5048374;28;20025;-71
2021/12/21 06:53:36;;;;;;;5.00;3.90;;;-2.30;78.90;;;;;;5043632;28;20044;-73
2021/12/21 06:56:07;;;;;;;5.63;3.80;;;-2.40;79.10;;;;;;5039423;28;20115;-72
2021/12/21 06:58:33;;;;;;;6.07;4.47;;;-2.40;78.80;;;;;;5041432;28;20025;-76
2021/12/21 07:00:59;;;;;;;6.65;3.80;;;-2.30;78.80;;;;;;5043310;28;20037;-74
2021/12/21 07:03:26;;;;;;;4.88;3.85;;;-2.40;78.40;;;;;;5037487;28;20088;-71
2021/12/21 07:05:52;;;;;;;6.10;4.25;;;-2.30;78.20;;;;;;5035080;28;20061;-74
2021/12/21 07:08:25;;;;;;;5.95;4.13;;;-2.30;78.00;;;;;;5040652;28;20091;-72
2021/12/21 07:11:13;;;;;;;5.60;4.40;;;-2.30;77.70;;;;;;5049019;28;20379;-76
2021/12/21 07:19:13;;;;;;;5.38;4.25;;;-2.20;77.20;;;;;;5044694;28;20032;-76
2021/12/21 07:21:39;;;;;;;6.03;4.43;;;-2.30;77.00;;;;;;5048824;28;20046;-74
2021/12/21 07:24:06;;;;;;;6.95;4.50;;;-2.20;76.70;;;;;;5041389;28;20105;-75
2021/12/21 07:26:33;;;;;;;2.50;2.15;;;-2.30;76.40;;;;;;5043099;28;20033;-76
2021/12/21 07:28:59;;;;;;;7.70;4.75;;;-2.30;76.70;;;;;;5040543;28;20083;-74
2021/12/21 07:31:25;;;;;;;6.47;4.30;;;-2.30;77.10;;;;;;5048779;28;20052;-74
2021/12/21 07:33:51;;;;;;;11.15;4.90;;;-2.30;76.90;;;;;;5038941;28;20108;-74
2021/12/21 07:36:18;;;;;;;7.18;4.43;;;-2.30;76.90;;;;;;5048623;28;20112;-74
2021/12/21 07:38:44;;;;;;;6.20;3.95;;;-2.20;76.90;;;;;;5039418;28;20029;-75
2021/12/21 07:41:10;;;;;;;6.47;4.40;;;-2.10;76.70;;;;;;5041477;28;20029;-74
2021/12/21 07:43:36;;;;;;;4.57;3.30;;;-2.00;76.40;;;;;;5034773;28;20040;-75
2021/12/21 07:46:02;;;;;;;5.03;3.47;;;-2.00;75.70;;;;;;5040364;28;20030;-75
2021/12/21 07:48:35;;;;;;;10.73;3.75;;;-2.00;75.20;;;;;;5037872;28;20179;-74
2021/12/21 07:51:02;;;;;;;5.03;3.40;;;-2.10;74.90;;;;;;5036774;28;20030;-75
2021/12/21 07:53:29;;;;;;;5.45;3.95;;;-2.10;74.60;;;;;;5044932;28;20476;-76
2021/12/21 07:55:57;;;;;;;5.57;4.03;;;-2.10;74.60;;;;;;5038198;28;20021;-75
2021/12/21 07:58:29;;;;;;;5.35;3.92;;;-2.10;74.70;;;;;;5035157;28;20037;-75
2021/12/21 08:00:57;;;;;;;4.95;3.55;;;-2.10;74.60;;;;;;5038168;28;20034;-75
2021/12/21 08:03:23;;;;;;;3.42;1.73;;;-2.10;74.50;;;;;;5037924;28;20104;-74
2021/12/21 08:05:52;;;;;;;6.13;4.28;;;-2.10;74.70;;;;;;5040682;28;20423;-72
2021/12/21 08:08:21;;;;;;;5.40;4.07;;;-2.20;75.20;;;;;;5030798;28;20032;-74
2021/12/21 08:10:55;;;;;;;6.07;3.65;;;-2.10;75.30;;;;;;5048453;28;20031;-78
2021/12/21 08:13:22;;;;;;;7.03;4.47;;;-2.10;74.80;;;;;;5043261;28;20060;-75
2021/12/21 08:15:48;;;;;;;6.07;4.30;;;-2.10;75.00;;;;;;5039087;28;20101;-74
2021/12/21 08:18:15;;;;;;;5.55;4.22;;;-2.10;75.10;;;;;;5040566;28;20056;-74
2021/12/21 08:20:42;;;;;;;5.22;4.18;;;-2.10;74.60;;;;;;5045559;28;20033;-72
2021/12/21 08:23:09;;;;;;;7.10;3.95;;;-2.10;74.70;;;;;;5042340;28;20027;-73
2021/12/21 08:25:36;;;;;;;6.07;4.00;;;-2.10;74.50;;;;;;5052551;28;20033;-75
2021/12/21 08:28:06;;;;;;;7.72;4.18;;;-2.20;73.60;;;;;;5041174;28;20026;-73
2021/12/21 08:30:32;;;;;;;5.53;3.75;;;-2.30;73.60;;;;;;5055382;28;20035;-77
2021/12/21 08:32:59;;;;;;;5.15;3.60;;;-2.30;73.40;;;;;;5041716;28;20029;-73
2021/12/21 08:35:25;;;;;;;5.85;4.32;;;-2.20;73.30;;;;;;5033387;28;20024;-74
2021/12/21 08:37:53;;;;;;;6.60;4.00;;;-2.10;72.90;;;;;;5033861;28;20072;-74
2021/12/21 08:40:20;;;;;;;4.38;3.15;;;-2.00;72.60;;;;;;5033564;28;20375;-74
2021/12/21 08:42:49;;;;;;;5.53;3.50;;;-2.00;71.50;;;;;;5038838;28;20017;-75
2021/12/21 08:45:14;;;;;;;6.35;3.80;;;-2.10;71.30;;;;;;5036077;28;20024;-73
2021/12/21 08:47:41;;;;;;;5.93;3.88;;;-2.00;71.20;;;;;;5038922;28;20026;-73
2021/12/21 08:50:09;;;;;;;5.30;3.47;;;-2.00;71.00;;;;;;5033588;28;20098;-73
2021/12/21 08:52:36;;;;;;;6.90;4.07;;;-2.00;70.60;;;;;;5048866;28;20025;-76
2021/12/21 08:55:05;;;;;;;4.85;3.65;;;-2.00;70.00;;;;;;5053215;28;20029;-70
2021/12/21 08:57:31;;;;;;;5.78;3.60;;;-2.10;69.20;;;;;;5053328;28;20037;-71
2021/12/21 08:59:57;;;;;;;4.63;3.10;;;-2.10;69.00;;;;;;5053231;28;20455;-72
2021/12/21 09:02:22;;;;;;;5.32;3.90;;;-2.20;69.20;;;;;;5053068;28;20091;-72
2021/12/21 09:04:48;;;;;;;6.55;4.43;;;-1.90;70.00;;;;;;5051949;28;20029;-76
2021/12/21 09:07:14;;;;;;;5.47;3.10;;;-1.40;70.10;;;;;;5053514;28;20025;-73
2021/12/21 09:09:40;;;;;;;4.97;3.25;;;-0.80;68.80;;;;;;5052111;28;20025;-71
2021/12/21 09:12:06;;;;;;;5.90;3.38;;;-0.40;67.70;;;;;;5056558;28;20390;-72
2021/12/21 09:14:32;;;;;;;4.47;2.90;;;-0.30;66.00;;;;;;5070719;28;20028;-72
2021/12/21 09:16:59;;;;;;;4.28;2.97;;;-0.20;65.70;;;;;;5073314;28;20116;-72
2021/12/21 09:19:25;;;;;;;5.63;3.72;;;-0.10;65.50;;;;;;5072442;28;20033;-76
2021/12/21 09:21:51;;;;;;;5.35;4.05;;;-0.20;64.60;;;;;;5035896;28;20048;-72
2021/12/21 09:24:17;;;;;;;16.75;5.25;;;-0.60;64.30;;;;;;5049571;28;20027;-71
2021/12/21 09:26:43;;;;;;;7.30;3.88;;;-0.90;65.20;;;;;;5035378;28;20034;-72
2021/12/21 09:29:09;;;;;;;6.10;3.92;;;-1.10;66.30;;;;;;5033823;28;20055;-72
2021/12/21 09:31:35;;;;;;;5.05;3.83;;;-1.10;67.50;;;;;;5032038;28;20037;-72
2021/12/21 09:34:02;;;;;;;5.85;4.18;;;-1.00;68.30;;;;;;5033548;28;20030;-71
2021/12/21 09:36:29;;;;;;;6.60;4.20;;;-1.00;67.80;;;;;;5034062;28;20021;-71
2021/12/21 09:38:56;;;;;;;6.30;4.03;;;-1.20;68.00;;;;;;5032392;28;20040;-72
2021/12/21 09:41:22;;;;;;;6.40;4.28;;;-1.30;69.30;;;;;;5033843;28;20033;-70
2021/12/21 09:43:47;;;;;;;6.70;4.28;;;-1.40;69.00;;;;;;5032810;28;20121;-69
2021/12/21 09:46:14;;;;;;;6.78;4.00;;;-1.50;68.90;;;;;;5036503;28;20057;-74
2021/12/21 09:48:40;;;;;;;6.13;4.15;;;-1.60;69.00;;;;;;5036859;28;20475;-71
2021/12/21 09:51:06;;;;;;;5.53;3.78;;;-1.40;70.40;;;;;;5036520;28;20025;-70
2021/12/21 09:53:33;;;;;;;5.90;3.75;;;-0.60;70.60;;;;;;5036107;28;20120;-75
2021/12/21 09:56:03;;;;;;;5.97;3.50;;;0.20;69.10;;;;;;5034994;28;20084;-72
2021/12/21 09:58:29;;;;;;;5.68;3.90;;;0.30;66.80;;;;;;5035183;28;20029;-71
2021/12/21 10:00:54;;;;;;;6.75;4.38;;;0.00;65.50;;;;;;5055444;28;20426;-71
2021/12/21 10:03:20;;;;;;;5.47;4.07;;;-0.30;66.00;;;;;;5056034;28;20029;-71
2021/12/21 10:05:46;;;;;;;6.85;4.35;;;-0.60;66.70;;;;;;5055730;28;20375;-70
2021/12/21 10:08:15;;;;;;;5.20;4.03;;;-1.00;67.00;;;;;;5054687;28;20025;-72
2021/12/21 10:10:44;;;;;;;4.85;3.75;;;-1.40;67.80;;;;;;5056130;28;20043;-70
2021/12/21 10:13:22;;;;;;;5.65;4.07;;;-1.60;68.70;;;;;;5056379;28;20487;-70
2021/12/21 10:16:03;;;;;;;5.30;3.90;;;-1.80;69.40;;;;;;5037233;28;20482;-72
2021/12/21 10:18:41;;;;;;;8.20;4.13;;;-2.00;69.60;;;;;;5065277;28;20383;-73
2021/12/21 10:21:14;;;;;;;6.82;4.20;;;-2.10;69.90;;;;;;5055009;28;20390;-72
2021/12/21 10:23:43;;;;;;;7.10;4.22;;;-2.20;70.20;;;;;;5042812;28;20025;-72
2021/12/21 10:26:12;;;;;;;10.77;4.13;;;-2.40;69.90;;;;;;5035528;28;20463;-74
2021/12/21 10:28:41;;;;;;;6.15;4.25;;;-2.60;69.90;;;;;;5034186;28;20035;-72
2021/12/21 10:31:29;;;;;;;6.65;4.85;;;-2.70;70.20;;;;;;5035663;28;20034;-74
2021/12/21 10:33:57;;;;;;;6.00;3.90;;;-2.80;70.10;;;;;;5046614;28;20029;-70
2021/12/21 10:36:26;;;;;;;6.47;4.20;;;-2.80;70.60;;;;;;5055594;28;20061;-70
2021/12/21 10:39:02;;;;;;;6.15;3.97;;;-2.80;70.50;;;;;;5055467;28;20060;-72
2021/12/21 10:41:31;;;;;;;5.55;3.92;;;-2.80;70.70;;;;;;5054328;28;20360;-71
2021/12/21 10:44:15;;;;;;;5.47;3.92;;;-2.80;70.40;;;;;;5055578;28;20025;-71
2021/12/21 10:46:52;;;;;;;5.75;4.32;;;-2.70;69.40;;;;;;5055498;28;20382;-72
2021/12/21 10:49:21;;;;;;;4.90;3.78;;;-2.70;68.90;;;;;;5057355;28;20037;-73
2021/12/21 10:51:53;;;;;;;6.38;3.72;;;-2.70;68.50;;;;;;5056028;28;20025;-72
2021/12/21 10:54:36;;;;;;;5.60;3.90;;;-2.70;67.70;;;;;;5056936;28;20371;-74
2021/12/21 10:57:10;;;;;;;6.28;4.50;;;-2.70;66.80;;;;;;5054959;28;20025;-70
2021/12/21 10:59:39;;;;;;;6.53;4.20;;;-2.70;66.80;;;;;;5055113;28;20021;-73
2021/12/21 11:02:11;;;;;;;6.18;3.90;;;-2.80;66.40;;;;;;5053692;28;20390;-74
2021/12/21 11:04:51;;;;;;;4.97;3.40;;;-2.80;65.50;;;;;;5053920;28;20032;-72
2021/12/21 11:07:33;;;;;;;9.88;3.40;;;-2.80;64.60;;;;;;5054186;28;20025;-73
2021/12/21 11:10:10;;;;;;;5.53;3.60;;;-2.80;64.00;;;;;;5048597;28;20029;-71
2021/12/21 11:12:55;;;;;;;5.65;3.65;;;-2.80;63.00;;;;;;5054936;28;20048;-72
2021/12/21 11:15:28;;;;;;;6.40;3.60;;;-2.90;61.40;;;;;;5054812;28;20085;-72
2021/12/21 11:17:55;;;;;;;6.28;3.70;;;-3.10;60.50;;;;;;5054794;28;20470;-71
2021/12/21 11:20:21;;;;;;;6.32;3.70;;;-3.20;60.30;;;;;;5054477;28;20112;-72
2021/12/21 11:22:47;;;;;;;4.93;3.50;;;-3.20;60.00;;;;;;5053957;28;20553;-72
2021/12/21 11:25:14;;;;;;;1.83;1.73;;;-3.30;59.80;;;;;;5056283;28;20024;-72
2021/12/21 11:27:42;;;;;;;5.57;3.80;;;-3.40;60.10;;;;;;5074349;28;20040;-73
2021/12/21 11:30:24;;;;;;;5.07;3.63;;;-3.50;60.90;;;;;;5074371;28;20370;-74
2021/12/21 11:32:52;;;;;;;4.13;3.60;;;-3.50;60.70;;;;;;5072980;28;20024;-72
2021/12/21 11:37:51;;;;;;;6.50;3.72;;;-3.20;61.20;;;;;;5074285;28;20486;-74
2021/12/21 11:40:22;;;;;;;8.05;4.70;;;-2.50;61.10;;;;;;5074054;28;20050;-71
2021/12/21 11:42:50;;;;;;;6.75;4.10;;;-1.60;59.70;;;;;;5036839;28;20029;-70
2021/12/21 11:45:27;;;;;;;6.07;3.45;;;-0.60;58.40;;;;;;5034239;28;20027;-72
2021/12/21 11:48:03;;;;;;;4.22;2.88;;;0.10;55.70;;;;;;5034300;28;20017;-72
2021/12/21 11:50:29;;;;;;;6.38;2.80;;;0.60;53.30;;;;;;5033604;28;20116;-71
2021/12/21 11:53:04;;;;;;;4.22;2.75;;;1.10;52.70;;;;;;5016897;28;20116;-71
2021/12/21 11:55:32;;;;;;;24.08;4.60;;;1.60;51.00;;;;;;5034381;28;20021;-71
2021/12/21 11:58:00;;;;;;;4.60;3.10;;;2.10;50.10;;;;;;5034942;28;20444;-71
2021/12/21 12:00:31;;;;;;;6.50;3.30;;;2.00;48.80;;;;;;5034246;28;20459;-72
2021/12/21 12:03:12;;;;;;;6.18;3.85;;;2.00;48.80;;;;;;5033903;28;20030;-73
2021/12/21 12:05:48;;;;;;;6.28;3.80;;;2.00;48.40;;;;;;5033938;28;20036;-70
2021/12/21 12:08:14;;;;;;;4.68;2.80;;;2.20;48.00;;;;;;5015900;28;20030;-71
2021/12/21 12:10:59;;;;;;;8.75;2.80;;;2.10;47.10;;;;;;5033797;28;20026;-69
2021/12/21 12:13:34;;;;;;;4.13;2.70;;;1.80;46.00;;;;;;5032464;28;20053;-73
2021/12/21 12:16:08;;;;;;;5.43;3.65;;;1.30;46.60;;;;;;5034164;28;20040;-71
2021/12/21 12:18:48;;;;;;;5.28;3.60;;;1.30;47.60;;;;;;5033808;28;20049;-72
2021/12/21 12:21:18;;;;;;;7.65;4.68;;;1.00;46.90;;;;;;5031942;28;20061;-69
2021/12/21 12:23:53;;;;;;;6.20;4.03;;;0.20;47.40;;;;;;5045598;28;20471;-71
2021/12/21 12:26:31;;;;;;;5.20;3.50;;;-0.30;48.50;;;;;;5053908;28;20021;-73
2021/12/21 12:29:19;;;;;;;5.65;3.63;;;-0.90;49.30;;;;;;5055495;28;20037;-70
2021/12/21 12:32:08;;;;;;;6.60;3.35;;;-1.40;50.00;;;;;;5058344;28;20025;-74
2021/12/21 12:34:38;;;;;;;5.72;3.80;;;-2.10;50.80;;;;;;5035580;28;20045;-70
2021/12/21 12:37:24;;;;;;;5.22;3.63;;;-2.60;52.00;;;;;;5032584;28;20420;-67
2021/12/21 12:39:53;;;;;;;;;;;-3.00;53.00;;;;;;5033882;28;20068;-76
2021/12/21 12:42:20;;;;;;;5.93;4.00;;;-3.30;53.70;;;;;;5033212;28;20317;-70
2021/12/21 12:44:50;;;;;;;5.85;4.00;;;-3.60;54.40;;;;;;5033590;28;20025;-71
2021/12/21 12:47:16;;;;;;;8.02;4.30;;;-4.00;55.10;;;;;;5032148;28;20025;-71
2021/12/21 12:49:54;;;;;;;5.97;4.03;;;-4.10;55.80;;;;;;5032534;28;20084;-69
2021/12/21 12:52:27;;;;;;;5.03;3.75;;;-4.20;56.40;;;;;;5033339;28;20033;-71
2021/12/21 12:55:03;;;;;;;2.72;2.22;;;-4.30;56.60;;;;;;5033128;28;20079;-71
2021/12/21 12:57:59;;;;;;;6.50;3.92;;;-4.50;56.70;;;;;;5043226;28;20029;-72
2021/12/21 13:00:31;;;;;;;6.67;4.13;;;-4.80;57.20;;;;;;5053191;28;20044;-78
2021/12/21 13:03:07;;;;;;;6.75;4.22;;;-4.90;57.70;;;;;;5052880;28;20270;-74
2021/12/21 13:05:39;;;;;;;5.65;4.32;;;-5.00;58.30;;;;;;5052564;28;20036;-73
2021/12/21 13:08:15;;;;;;;5.57;4.18;;;-5.20;58.70;;;;;;5032242;28;20029;-72
2021/12/21 13:10:44;;;;;;;6.53;4.20;;;-5.30;59.10;;;;;;5033168;28;20490;-71
2021/12/21 13:13:10;;;;;;;7.10;4.45;;;-5.40;59.20;;;;;;5031661;28;20518;-73
2021/12/21 13:15:41;;;;;;;6.80;4.63;;;-5.60;59.50;;;;;;5032847;28;20030;-71
2021/12/21 13:18:08;;;;;;;2.92;2.15;;;-5.70;59.70;;;;;;5034370;28;20017;-70
2021/12/21 13:20:37;;;;;;;6.32;4.97;;;-5.90;59.60;;;;;;5035876;28;20475;-69
2021/12/21 13:23:15;;;;;;;7.45;5.00;;;-6.00;60.10;;;;;;5039114;28;20025;-71
2021/12/21 13:26:11;;;;;;;7.50;5.50;;;-6.10;60.70;;;;;;5036609;28;20414;-70
2021/12/21 13:28:45;;;;;;;7.45;5.25;;;-6.20;61.10;;;;;;5036739;28;20178;-71
2021/12/21 13:31:10;;;;;;;8.25;5.25;;;-6.30;61.40;;;;;;5036860;28;20379;-72
2021/12/21 13:33:40;;;;;;;1.90;1.80;;;-6.40;61.80;;;;;;5038490;28;20025;-68
2021/12/21 13:36:07;;;;;;;6.28;4.97;;;-6.50;61.90;;;;;;5065158;28;20029;-71
2021/12/21 13:38:37;;;;;;;5.13;3.67;;;-6.60;62.30;;;;;;5076151;28;20029;-71
2021/12/21 13:41:12;;;;;;;6.55;5.20;;;-6.70;62.50;;;;;;5050114;28;20083;-73
2021/12/21 13:43:50;;;;;;;8.07;5.40;;;-6.80;63.10;;;;;;5036511;28;20021;-75
2021/12/21 13:46:16;;;;;;;2.42;2.25;;;-6.90;63.60;;;;;;5035075;28;20029;-73
2021/12/21 13:48:53;;;;;;;8.38;5.60;;;-7.00;63.90;;;;;;5036404;28;20051;-71
2021/12/21 13:51:20;;;;;;;2.92;2.40;;;-7.00;64.60;;;;;;5035625;28;20112;-70
2021/12/21 13:53:55;;;;;;;3.17;2.70;;;-7.00;64.90;;;;;;5035045;28;20025;-70
2021/12/21 13:56:24;;;;;;;5.32;3.60;;;-7.10;65.00;;;;;;5019394;28;20033;-75
2021/12/21 13:58:54;;;;;;;8.30;5.25;;;-7.10;65.20;;;;;;5037033;28;20172;-73
2021/12/21 14:01:31;;;;;;;3.17;2.90;;;-7.20;65.90;;;;;;5036029;28;20088;-74